createdAt,value
2022-08-09T00:00:23.292Z,11.80
2022-08-09T00:04:00.373Z,8.00
2022-08-09T00:06:18.098Z,11.90
2022-08-09T00:08:47.681Z,10.60
2022-08-09T00:11:24.797Z,8.70
2022-08-09T00:13:53.765Z,9.50
2022-08-09T00:16:26.284Z,9.40
2022-08-09T00:19:09.471Z,8.20
2022-08-09T00:21:43.258Z,10.10
2022-08-09T00:24:24.931Z,11.40
2022-08-09T00:26:55.901Z,8.30
2022-08-09T00:29:39.445Z,8.20
2022-08-09T00:32:14.157Z,12.00
2022-08-09T00:34:54.260Z,8.30
2022-08-09T00:37:22.385Z,11.10
2022-08-09T00:40:09.081Z,9.80
2022-08-09T00:44:10.304Z,9.20
2022-08-09T00:45:28.830Z,10.80
2022-08-09T00:47:57.201Z,9.00
2022-08-09T00:50:25.496Z,9.70
2022-08-09T00:52:55.431Z,9.10
2022-08-09T00:56:03.305Z,7.90
2022-08-09T00:58:14.829Z,8.70
2022-08-09T01:00:53.049Z,10.70
2022-08-09T01:03:28.641Z,9.60
2022-08-09T01:06:17.486Z,8.40
2022-08-09T01:08:56.856Z,10.20
2022-08-09T01:14:09.929Z,7.90
2022-08-09T01:16:47.442Z,10.00
2022-08-09T01:19:42.565Z,10.40
2022-08-09T01:22:52.087Z,10.80
2022-08-09T01:25:41.717Z,11.40
2022-08-09T01:28:11.468Z,9.00
2022-08-09T01:30:52.128Z,8.40
2022-08-09T01:33:27.518Z,8.80
2022-08-09T01:36:02.780Z,7.80
2022-08-09T01:38:36.267Z,10.80
2022-08-09T01:41:15.550Z,8.80
2022-08-09T01:43:52.039Z,8.10
2022-08-09T01:46:26.853Z,12.10
2022-08-09T01:48:59.835Z,11.00
2022-08-09T01:51:32.303Z,12.90
2022-08-09T01:54:03.993Z,10.80
2022-08-09T01:56:34.948Z,8.30
2022-08-09T01:59:09.872Z,7.70
2022-08-09T02:01:58.968Z,9.50
2022-08-09T02:04:33.280Z,11.70
2022-08-09T02:07:17.770Z,10.80
2022-08-09T02:09:59.456Z,9.90
2022-08-09T02:12:32.265Z,8.70
2022-08-09T02:15:06.350Z,12.00
2022-08-09T02:18:00.176Z,9.70
2022-08-09T02:20:32.822Z,8.80
2022-08-09T02:23:08.250Z,8.90
2022-08-09T02:25:41.932Z,7.60
2022-08-09T02:28:18.101Z,7.90
2022-08-09T02:30:50.282Z,8.50
2022-08-09T02:33:37.725Z,9.10
2022-08-09T02:36:17.407Z,10.20
2022-08-09T02:38:50.638Z,8.70
2022-08-09T02:41:26.380Z,8.80
2022-08-09T02:43:58.269Z,8.00
2022-08-09T02:46:31.272Z,9.00
2022-08-09T02:49:05.455Z,10.10
2022-08-09T02:51:40.600Z,9.30
2022-08-09T02:54:13.951Z,7.50
2022-08-09T02:56:51.218Z,12.20
2022-08-09T02:59:26.658Z,11.60
2022-08-09T03:02:07.312Z,8.60
2022-08-09T03:04:41.441Z,8.70
2022-08-09T03:07:13.787Z,9.10
2022-08-09T03:09:54.410Z,9.20
2022-08-09T03:12:25.997Z,9.50
2022-08-09T03:14:56.140Z,11.20
2022-08-09T03:17:26.775Z,16.90
2022-08-09T03:20:03.534Z,8.90
2022-08-09T03:22:45.823Z,10.70
2022-08-09T03:25:57.715Z,7.60
2022-08-09T03:28:15.869Z,10.50
2022-08-09T03:30:46.393Z,10.00
2022-08-09T03:33:19.424Z,10.50
2022-08-09T03:36:13.287Z,11.20
2022-08-09T03:38:41.974Z,9.60
2022-08-09T03:41:15.259Z,9.20
2022-08-09T03:44:03.285Z,10.30
2022-08-09T03:46:34.932Z,11.30
2022-08-09T03:49:09.027Z,8.80
2022-08-09T03:51:56.040Z,11.10
2022-08-09T03:54:31.791Z,8.60
2022-08-09T03:57:04.551Z,9.90
2022-08-09T03:59:53.410Z,10.50
2022-08-09T04:02:26.561Z,10.80
2022-08-09T04:07:23.286Z,6.80
2022-08-09T04:10:11.373Z,7.40
2022-08-09T04:12:46.896Z,9.00
2022-08-09T04:15:38.914Z,9.10
2022-08-09T04:18:08.516Z,12.70
2022-08-09T04:20:36.678Z,7.40
2022-08-09T04:23:10.090Z,10.80
2022-08-09T04:25:49.834Z,9.80
2022-08-09T04:28:31.481Z,8.30
2022-08-09T04:31:08.016Z,7.20
2022-08-09T04:33:51.980Z,9.20
2022-08-09T04:36:24.235Z,11.20
2022-08-09T04:38:53.186Z,11.60
2022-08-09T04:41:23.770Z,11.50
2022-08-09T04:44:05.588Z,10.90
2022-08-09T04:46:38.270Z,11.30
2022-08-09T04:49:40.885Z,14.20
2022-08-09T04:52:12.574Z,10.40
2022-08-09T04:54:51.052Z,10.50
2022-08-09T04:57:21.437Z,12.60
2022-08-09T04:59:53.834Z,11.40
2022-08-09T05:02:22.481Z,10.20
2022-08-09T05:04:55.222Z,9.60
2022-08-09T05:07:24.691Z,14.10
2022-08-09T05:09:55.959Z,18.80
2022-08-09T05:12:24.202Z,16.90
2022-08-09T05:14:52.268Z,26.40
2022-08-09T05:18:50.675Z,13.90
2022-08-09T05:20:10.403Z,15.90
2022-08-09T05:23:56.851Z,15.50
2022-08-09T05:25:28.319Z,14.50
2022-08-09T05:28:00.759Z,11.50
2022-08-09T05:30:29.896Z,15.80
2022-08-09T05:33:00.060Z,15.30
2022-08-09T05:35:29.936Z,13.90
2022-08-09T05:40:28.067Z,15.30
2022-08-09T05:42:57.013Z,10.20
2022-08-09T05:45:25.486Z,14.80
2022-08-09T05:48:11.688Z,18.60
2022-08-09T05:50:57.035Z,10.40
2022-08-09T05:53:33.373Z,13.90
2022-08-09T05:56:02.273Z,10.80
2022-08-09T05:58:30.389Z,14.50
2022-08-09T06:00:59.117Z,10.20
2022-08-09T06:03:34.902Z,11.10
2022-08-09T06:06:13.211Z,11.20
2022-08-09T06:08:41.613Z,14.00
2022-08-09T06:11:16.519Z,12.90
2022-08-09T06:13:47.460Z,15.10
2022-08-09T06:18:44.600Z,18.50
2022-08-09T06:21:12.725Z,11.20
2022-08-09T06:23:57.995Z,11.50
2022-08-09T06:26:30.533Z,12.10
2022-08-09T06:29:05.039Z,10.40
2022-08-09T06:31:40.049Z,7.30
2022-08-09T06:34:25.941Z,8.90
2022-08-09T06:36:59.456Z,10.40
2022-08-09T06:39:48.721Z,6.60
2022-08-09T06:42:19.789Z,6.50
2022-08-09T06:45:00.052Z,6.80
2022-08-09T06:47:29.941Z,6.70
2022-08-09T06:50:13.525Z,8.20
2022-08-09T06:52:48.801Z,8.20
2022-08-09T06:55:19.029Z,14.60
2022-08-09T06:58:02.721Z,6.70
2022-08-09T07:00:50.100Z,5.10
2022-08-09T07:03:27.969Z,10.50
2022-08-09T07:06:04.114Z,4.80
2022-08-09T07:08:35.256Z,7.10
2022-08-09T07:11:06.560Z,5.20
2022-08-09T07:13:45.388Z,6.30
2022-08-09T07:16:41.403Z,7.70
2022-08-09T07:19:15.777Z,4.70
2022-08-09T07:21:56.046Z,5.20
2022-08-09T07:24:32.390Z,14.10
2022-08-09T07:27:11.146Z,5.50
2022-08-09T07:29:56.963Z,6.30
2022-08-09T07:32:32.434Z,8.80
2022-08-09T07:35:07.887Z,8.10
2022-08-09T07:37:42.769Z,9.10
2022-08-09T07:40:17.683Z,5.60
2022-08-09T07:42:54.520Z,8.30
2022-08-09T07:45:39.244Z,8.50
2022-08-09T07:48:25.742Z,11.80
2022-08-09T07:51:10.244Z,5.80
2022-08-09T07:54:05.618Z,6.50
2022-08-09T07:56:44.876Z,9.90
2022-08-09T07:59:34.714Z,4.70
2022-08-09T08:02:09.149Z,4.70
2022-08-09T08:04:38.462Z,9.10
2022-08-09T08:07:09.565Z,7.60
2022-08-09T08:10:08.985Z,4.60
2022-08-09T08:12:43.505Z,5.50
2022-08-09T08:15:16.413Z,5.30
2022-08-09T08:17:55.111Z,6.10
2022-08-09T08:20:32.360Z,5.70
2022-08-09T08:23:17.134Z,9.80
2022-08-09T08:25:50.327Z,5.80
2022-08-09T08:28:35.393Z,5.30
2022-08-09T08:31:13.879Z,8.50
2022-08-09T08:33:53.757Z,7.20
2022-08-09T08:36:29.208Z,6.90
2022-08-09T08:38:58.496Z,5.00
2022-08-09T08:41:41.810Z,9.60
2022-08-09T08:44:26.853Z,6.90
2022-08-09T08:47:03.304Z,8.00
2022-08-09T08:49:47.840Z,8.50
2022-08-09T08:52:52.742Z,6.50
2022-08-09T08:55:09.479Z,5.80
2022-08-09T08:57:38.167Z,5.80
2022-08-09T09:00:17.154Z,6.40
2022-08-09T09:02:52.628Z,6.20
2022-08-09T09:05:33.155Z,6.30
2022-08-09T09:08:30.098Z,6.50
2022-08-09T09:11:03.818Z,4.80
2022-08-09T09:13:47.365Z,6.80
2022-08-09T09:16:33.721Z,7.20
2022-08-09T09:22:04.345Z,15.00
2022-08-09T09:24:38.020Z,12.70
2022-08-09T09:27:09.322Z,13.30
2022-08-09T09:30:14.151Z,9.20
2022-08-09T09:33:00.204Z,6.90
2022-08-09T09:35:29.649Z,6.80
2022-08-09T09:38:01.467Z,6.40
2022-08-09T09:40:42.632Z,5.40
2022-08-09T09:43:21.699Z,8.40
2022-08-09T09:46:39.562Z,8.10
2022-08-09T09:48:56.882Z,7.80
2022-08-09T09:51:37.970Z,9.30
2022-08-09T09:54:20.523Z,7.10
2022-08-09T09:56:53.334Z,10.80
2022-08-09T09:59:38.341Z,6.30
2022-08-09T10:02:06.922Z,11.00
2022-08-09T10:04:36.577Z,12.50
2022-08-09T10:07:10.111Z,6.50
2022-08-09T10:09:49.031Z,5.40
2022-08-09T10:12:31.272Z,5.00
2022-08-09T10:15:17.464Z,5.00
2022-08-09T10:18:11.272Z,4.30
2022-08-09T10:20:45.198Z,8.80
2022-08-09T10:23:20.407Z,7.40
2022-08-09T10:26:06.218Z,6.70
2022-08-09T10:28:38.225Z,9.10
2022-08-09T10:34:10.761Z,8.20
2022-08-09T10:36:45.285Z,8.70
2022-08-09T10:39:19.167Z,9.10
2022-08-09T10:41:48.314Z,7.20
2022-08-09T10:44:21.770Z,5.70
2022-08-09T10:48:12.118Z,5.60
2022-08-09T10:50:16.968Z,9.60
2022-08-09T10:53:05.174Z,10.40
2022-08-09T10:55:57.931Z,10.70
2022-08-09T10:58:31.572Z,10.10
2022-08-09T11:03:03.019Z,8.90
2022-08-09T11:04:28.133Z,11.50
2022-08-09T11:07:26.912Z,7.30
2022-08-09T11:10:15.408Z,5.30
2022-08-09T11:13:51.255Z,5.70
2022-08-09T11:16:37.805Z,9.90
2022-08-09T11:19:09.413Z,10.20
2022-08-09T11:22:16.892Z,8.90
2022-08-09T11:25:08.122Z,7.20
2022-08-09T11:28:04.835Z,5.40
2022-08-09T11:30:36.185Z,6.90
2022-08-09T11:33:10.419Z,5.70
2022-08-09T11:35:50.218Z,6.50
2022-08-09T11:38:32.688Z,6.30
2022-08-09T11:41:38.019Z,8.10
2022-08-09T11:44:08.899Z,7.10
2022-08-09T11:46:54.195Z,10.30
2022-08-09T11:50:56.819Z,7.40
2022-08-09T11:54:00.518Z,6.60
2022-08-09T11:56:41.928Z,9.70
2022-08-09T11:59:30.585Z,6.60
2022-08-09T12:02:17.045Z,7.70
2022-08-09T12:04:46.703Z,5.30
2022-08-09T12:07:15.416Z,6.50
2022-08-09T12:12:28.838Z,5.40
2022-08-09T12:15:07.933Z,7.50
2022-08-09T12:17:43.336Z,5.50
2022-08-09T12:20:21.394Z,5.40
2022-08-09T12:22:56.107Z,6.00
2022-08-09T12:25:35.914Z,5.60
2022-08-09T12:29:12.150Z,3.20
2022-08-09T12:30:59.688Z,7.90
2022-08-09T12:33:51.074Z,5.60
2022-08-09T12:36:31.855Z,6.80
2022-08-09T12:39:02.389Z,6.70
2022-08-09T12:41:38.083Z,9.30
2022-08-09T12:44:10.388Z,5.40
2022-08-09T12:46:49.067Z,6.90
2022-08-09T12:49:18.842Z,7.30
2022-08-09T12:52:02.236Z,8.70
2022-08-09T12:56:02.349Z,3.20
2022-08-09T12:57:39.773Z,8.20
2022-08-09T13:00:17.248Z,6.00
2022-08-09T13:02:53.442Z,8.30
2022-08-09T13:05:25.316Z,7.50
2022-08-09T13:08:14.735Z,5.80
2022-08-09T13:10:52.503Z,4.70
2022-08-09T13:13:38.230Z,5.90
2022-08-09T13:16:20.806Z,6.60
2022-08-09T13:18:53.769Z,7.20
2022-08-09T13:22:38.384Z,6.20
2022-08-09T13:24:42.188Z,8.70
2022-08-09T13:27:06.082Z,7.80
2022-08-09T13:30:02.704Z,5.10
2022-08-09T13:32:28.954Z,8.90
2022-08-09T13:34:57.405Z,9.50
2022-08-09T13:37:50.549Z,12.10
2022-08-09T13:41:55.140Z,14.90
2022-08-09T13:43:05.306Z,21.00
2022-08-09T13:46:43.633Z,21.20
2022-08-09T13:48:26.788Z,9.00
2022-08-09T13:50:58.465Z,17.80
2022-08-09T13:53:29.217Z,14.70
2022-08-09T13:56:12.232Z,58.60
2022-08-09T13:58:40.705Z,45.70
2022-08-09T14:01:13.516Z,21.50
2022-08-09T14:04:02.985Z,12.90
2022-08-09T14:06:36.911Z,9.40
2022-08-09T14:09:08.544Z,8.40
2022-08-09T14:14:25.778Z,12.10
2022-08-09T14:16:56.147Z,8.30
2022-08-09T14:19:24.718Z,7.70
2022-08-09T14:21:53.086Z,11.60
2022-08-09T14:24:32.199Z,9.70
2022-08-09T14:27:02.202Z,7.50
2022-08-09T14:30:36.360Z,11.20
2022-08-09T14:32:20.028Z,6.90
2022-08-09T14:34:58.986Z,6.80
2022-08-09T14:37:28.351Z,8.70
2022-08-09T14:40:11.441Z,5.70
2022-08-09T14:42:41.345Z,6.00
2022-08-09T14:46:58.754Z,3.90
2022-08-09T14:48:02.460Z,10.10
2022-08-09T14:53:00.626Z,8.70
2022-08-09T14:55:29.055Z,5.60
2022-08-09T14:58:03.025Z,12.10
2022-08-09T15:03:00.123Z,5.20
2022-08-09T15:05:29.576Z,5.40
2022-08-09T15:07:59.031Z,4.40
2022-08-09T15:10:28.704Z,8.60
2022-08-09T15:13:01.558Z,6.90
2022-08-09T15:15:34.478Z,6.10
2022-08-09T15:18:12.419Z,9.10
2022-08-09T15:21:57.605Z,7.60
2022-08-09T15:24:01.904Z,7.20
2022-08-09T15:26:31.412Z,8.50
2022-08-09T15:29:04.240Z,7.70
2022-08-09T15:31:41.884Z,6.60
2022-08-09T15:34:32.769Z,7.00
2022-08-09T15:37:00.116Z,8.20
2022-08-09T15:39:44.039Z,8.60
2022-08-09T15:42:20.485Z,5.60
2022-08-09T15:44:50.397Z,6.30
2022-08-09T15:47:22.500Z,9.80
2022-08-09T15:50:04.885Z,12.40
2022-08-09T15:52:34.672Z,6.50
2022-08-09T15:55:03.662Z,5.30
2022-08-09T15:57:35.662Z,5.20
2022-08-09T16:00:21.889Z,9.40
2022-08-09T16:02:56.273Z,6.70
2022-08-09T16:05:47.096Z,8.70
2022-08-09T16:08:30.933Z,7.00
2022-08-09T16:11:01.607Z,5.00
2022-08-09T16:14:03.510Z,4.70
2022-08-09T16:16:19.216Z,6.70
2022-08-09T16:18:47.770Z,9.10
2022-08-09T16:21:17.748Z,6.30
2022-08-09T16:23:58.336Z,7.40
2022-08-09T16:26:33.527Z,7.10
2022-08-09T16:29:06.078Z,9.70
2022-08-09T16:32:18.111Z,7.20
2022-08-09T16:34:55.196Z,7.40
2022-08-09T16:37:19.526Z,6.70
2022-08-09T16:40:12.146Z,5.60
2022-08-09T16:42:44.998Z,5.40
2022-08-09T16:45:19.135Z,6.70
2022-08-09T16:48:43.280Z,6.40
2022-08-09T16:50:38.398Z,6.70
2022-08-09T16:53:08.950Z,7.60
2022-08-09T16:56:00.579Z,5.50
2022-08-09T16:58:55.774Z,7.40
2022-08-09T17:01:35.450Z,6.30
2022-08-09T17:04:06.890Z,8.90
2022-08-09T17:07:04.817Z,6.10
2022-08-09T17:09:45.708Z,6.80
2022-08-09T17:12:13.426Z,8.20
2022-08-09T17:14:47.944Z,12.80
2022-08-09T17:17:26.626Z,12.90
2022-08-09T17:20:28.710Z,9.50
2022-08-09T17:22:49.741Z,11.00
2022-08-09T17:25:19.101Z,8.40
2022-08-09T17:27:49.413Z,8.30
2022-08-09T17:30:25.730Z,9.60
2022-08-09T17:33:00.551Z,10.90
2022-08-09T17:35:35.710Z,9.40
2022-08-09T17:38:13.271Z,10.10
2022-08-09T17:40:52.698Z,8.80
2022-08-09T17:43:34.588Z,12.20
2022-08-09T17:46:08.800Z,20.10
2022-08-09T17:48:40.482Z,12.00
2022-08-09T17:51:21.433Z,13.30
2022-08-09T17:53:52.790Z,9.10
2022-08-09T17:56:26.629Z,7.70
2022-08-09T17:58:58.664Z,14.90
2022-08-09T18:01:57.863Z,9.50
2022-08-09T18:04:19.613Z,8.90
2022-08-09T18:06:54.368Z,9.80
2022-08-09T18:09:24.987Z,10.10
2022-08-09T18:12:14.638Z,12.80
2022-08-09T18:14:53.334Z,16.30
2022-08-09T18:17:27.539Z,27.30
2022-08-09T18:20:54.657Z,21.20
2022-08-09T18:23:05.115Z,17.30
2022-08-09T18:25:50.526Z,11.90
2022-08-09T18:30:41.056Z,9.50
2022-08-09T18:31:12.216Z,13.40
2022-08-09T18:33:40.819Z,12.60
2022-08-09T18:36:14.086Z,14.70
2022-08-09T18:38:44.004Z,10.10
2022-08-09T18:41:16.534Z,10.00
2022-08-09T18:43:53.256Z,10.30
2022-08-09T18:46:50.300Z,7.70
2022-08-09T18:49:20.296Z,12.20
2022-08-09T18:51:55.306Z,7.90
2022-08-09T18:54:28.427Z,8.60
2022-08-09T18:59:37.594Z,9.70
2022-08-09T19:02:18.504Z,7.30
2022-08-09T19:05:03.815Z,11.10
2022-08-09T19:07:36.940Z,10.60
2022-08-09T19:10:14.197Z,8.00
2022-08-09T19:12:59.531Z,9.90
2022-08-09T19:15:36.137Z,10.40
2022-08-09T19:18:17.294Z,9.10
2022-08-09T19:20:56.921Z,9.10
2022-08-09T19:24:32.015Z,8.50
2022-08-09T19:26:16.909Z,9.60
2022-08-09T19:28:48.985Z,9.50
2022-08-09T19:31:17.773Z,9.70
2022-08-09T19:33:46.537Z,11.00
2022-08-09T19:36:19.955Z,8.50
2022-08-09T19:38:51.759Z,10.90
2022-08-09T19:41:33.338Z,12.60
2022-08-09T19:44:04.770Z,8.60
2022-08-09T19:46:35.631Z,10.30
2022-08-09T19:50:09.514Z,10.60
2022-08-09T19:52:00.212Z,9.30
2022-08-09T19:54:30.170Z,10.90
2022-08-09T19:56:58.834Z,10.50
2022-08-09T19:59:58.269Z,9.50
2022-08-09T20:04:10.570Z,11.20
2022-08-09T20:05:10.120Z,10.10
2022-08-09T20:07:59.545Z,12.10
2022-08-09T20:10:37.161Z,11.40
2022-08-09T20:13:09.683Z,12.10
2022-08-09T20:16:33.028Z,11.50
2022-08-09T20:18:27.609Z,11.50
2022-08-09T20:20:57.773Z,13.70
2022-08-09T20:23:38.571Z,9.90
2022-08-09T20:26:09.326Z,13.60
2022-08-09T20:28:48.812Z,9.90
2022-08-09T20:31:19.165Z,8.00
2022-08-09T20:33:52.530Z,14.30
2022-08-09T20:36:27.590Z,10.10
2022-08-09T20:39:29.155Z,13.90
2022-08-09T20:41:45.049Z,14.20
2022-08-09T20:44:17.463Z,12.40
2022-08-09T20:46:55.636Z,11.10
2022-08-09T20:49:26.827Z,9.40
2022-08-09T20:51:57.413Z,9.20
2022-08-09T20:54:29.211Z,11.00
2022-08-09T20:56:58.417Z,11.40
2022-08-09T21:00:19.322Z,11.60
2022-08-09T21:02:17.402Z,11.30
2022-08-09T21:05:51.767Z,13.40
2022-08-09T21:07:40.701Z,9.60
2022-08-09T21:10:12.542Z,9.60
2022-08-09T21:15:34.586Z,9.80
2022-08-09T21:18:24.062Z,10.80
2022-08-09T21:20:54.101Z,9.60
2022-08-09T21:23:26.530Z,10.10
2022-08-09T21:26:11.579Z,9.00
2022-08-09T21:28:40.298Z,11.80
2022-08-09T21:31:24.287Z,11.40
2022-08-09T21:34:13.204Z,10.00
2022-08-09T21:36:55.449Z,12.90
2022-08-09T21:39:28.285Z,12.80
2022-08-09T21:42:15.325Z,11.60
2022-08-09T21:44:44.144Z,10.70
2022-08-09T21:47:17.349Z,10.20
2022-08-09T21:49:48.860Z,11.50
2022-08-09T21:52:20.627Z,11.90
2022-08-09T21:55:03.690Z,10.30
2022-08-09T21:57:36.928Z,15.30
2022-08-09T22:00:12.469Z,10.80
2022-08-09T22:02:43.718Z,11.60
2022-08-09T22:05:23.829Z,11.20
2022-08-09T22:08:07.108Z,10.20
2022-08-09T22:11:49.742Z,10.30
2022-08-09T22:13:31.410Z,10.00
2022-08-09T22:16:07.716Z,11.90
2022-08-09T22:18:37.830Z,13.40
2022-08-09T22:21:10.040Z,12.10
2022-08-09T22:23:59.432Z,9.70
2022-08-09T22:26:34.123Z,12.80
2022-08-09T22:29:05.387Z,10.80
2022-08-09T22:31:36.346Z,9.50
2022-08-09T22:34:09.716Z,10.00
2022-08-09T22:36:46.413Z,9.80
2022-08-09T22:39:20.812Z,7.60
2022-08-09T22:42:21.276Z,15.00
2022-08-09T22:45:00.468Z,15.00
2022-08-09T22:48:13.938Z,8.60
2022-08-09T22:50:32.540Z,9.80
2022-08-09T22:53:03.293Z,12.40
2022-08-09T22:56:06.541Z,10.10
2022-08-09T22:58:32.794Z,10.70
2022-08-09T23:01:02.631Z,8.80
2022-08-09T23:04:03.744Z,9.90
2022-08-09T23:06:32.664Z,12.10
2022-08-09T23:09:06.242Z,8.10
2022-08-09T23:11:34.535Z,10.40
2022-08-09T23:14:03.803Z,9.90
2022-08-09T23:16:32.553Z,9.10
2022-08-09T23:19:01.103Z,10.20
2022-08-09T23:21:34.577Z,11.50
2022-08-09T23:24:07.263Z,9.00
2022-08-09T23:26:36.579Z,8.70
2022-08-09T23:29:06.302Z,8.90
2022-08-09T23:31:34.567Z,9.20
2022-08-09T23:34:03.985Z,10.90
2022-08-09T23:36:32.916Z,11.60
2022-08-09T23:39:01.820Z,8.50
2022-08-09T23:41:30.145Z,9.10
2022-08-09T23:43:59.609Z,10.50
2022-08-09T23:46:29.040Z,11.40
2022-08-09T23:48:57.942Z,9.00
2022-08-09T23:51:26.956Z,9.40
2022-08-09T23:54:02.390Z,9.20
2022-08-09T23:56:53.723Z,8.90
2022-08-09T23:59:21.448Z,8.20
